Alexandria, Ohio
Current Conditions -  °F | °C
As of 7:54 AM on Sunday 21 Dec 2014 (Local Time) from KVTA Reporting Station
Overcast Overcast  
Wind Chill: -1°   Ceiling: 2400
Heat Index: -1°   Visibility: 8mi
Dew Point: -6°   Wind: 3mph
Humidity: 67%   Direction: 350°N
Pressure: 30.31"   Gusts: NA
Location:  40.09°N, 82.61°W
Report Text: KVTA 211254Z AUTO 35003KT 8SM OVC024 M01/M06 A3031 RMK AO2 SLP274 T10061061
Loading
Personal Weather Stations






























Interactive Weather Map New forecast layout! Learn more

10-Day Weather Forecast

Advertisements
Track Severe Weather on mobile